Language selection

Weather shortcuts

Eastern Shore: Past 24 Hour Conditions

 

St. Anthony Airport

02:30 AM NST 22 February 2024
Disclaimer

This table is a summary of hourly weather conditions for the past 24 hours.
Please note that these observations might not always be representative of weather conditions over their associated marine area.

Date / Time
(NST)
Wind(knots) Conditions Visibility(km) Pressure(kPa) Air tempC) Relative humidity(%) Dew pointC) Wind Chill
22 February 2024
2:30 SW 20 gusts 27 Cloudy 16 102.5 -5 77 -9 -14
1:30 WSW 20 gusts 25 Light Snow 16 102.6 -5 77 -9 -14
0:30 SW 15 gusts 22 Light Snow 16 102.6 -6 78 -9 -14
21 February 2024
23:30 WSW 15 gusts 21 Light Snow 16 102.6 -7 79 -10 -15
22:30 SW 9 Light Snow 16 102.6 -7 79 -10 -14
21:30 SW 10 gusts 19 Light Snow 16 102.6 -8 79 -11 -15
20:30 SSE 3 Cloudy 16 102.6 -9 78 -12 -12
19:30 SSW 9 gusts 15 Light Snow 16 102.6 -10 74 -14 -17
18:30 SSW 9 Light Snow 16 102.7 -11 76 -15 -19
17:30 SW 14 gusts 20 Sunny 16 102.7 -11 69 -16 -21
16:30 SW 22 gusts 29 Sunny 13 102.8 -12 70 -16 -23
15:30 SW 16 gusts 23 Light Snow 16 102.8 -12 64 -18 -23
14:30 WSW 26 gusts 31 Light Snow 5 102.7 -14 65 -19 -27
13:30 WSW 23 gusts 33 Blowing Snow 4 102.7 -14 64 -20 -27
12:30 WSW 24 gusts 32 Light Snow 6 102.6 -15 62 -21 -28
11:30 WSW 24 gusts 33 Blowing Snow 4 102.6 -15 61 -21 -28
10:30 WSW 17 Sunny 16 102.5 -16 56 -23 -27
9:30 WSW 20 gusts 28 Sunny 16 102.4 -17 58 -23 -29
8:30 W 18 gusts 24 Sunny 16 102.3 -17 60 -23 -29
7:30 WSW 17 gusts 24 Sunny 16 102.2 -18 62 -23 -30
6:30 WSW 18 Clear 16 102.0 -18 64 -23 -30
5:30 W 12 gusts 17 Clear 16 101.9 -18 62 -23 -28
4:30 W 22 gusts 28 Haze 8 101.8 -18 63 -23 -31
3:30 W 18 gusts 26 Clear 15 101.6 -17 63 -23 -29
2:30 W 20 gusts 28 Haze 10 101.5 -17 65 -22 -29

Zoom-in to make a selection

Map of Atlantic - Newfoundland marine weather areas Banquereau - 44139 East Chedabucto Bay – 44488 West Chedabucto Bay – 44489 Blanc-Sablon Airport Cap Whittle Chevery Natashquan Airport Heath Point Îles de la Madeleine Airport Miscou Island Eskasoni (First Nations) Grand Étang Ingonish Beach North Mountain St.Paul Island J.A. Douglas McCurdy Sydney Airport Charlottetown Airport East Point North Cape Argentia Berry Hill Bonavista Burgeo Cape Race Corner Brook Daniel's Harbour Englee Ferolle Point La Scie Port aux Basques Sagona Island St. Anthony Airport St. John's Int'l Airport St. Lawrence Stephenville Airport Twillingate Winterland Branch Hill Wreckhouse Grates Cove Pool's Island Marticot Island Long Pond Cartwright Airport Mary's Harbour
Legend:
buoy Buoy
land station Land Station

Atlantic - Newfoundland Area

Another Region

Date modified: